sensor_id;sensor_type;location;lat;lon;timestamp;P1;durP1;ratioP1;P2;durP2;ratioP2
69185;SDS011;56298;49.246;9.410;2022-10-30T00:01:20;20.73;;;9.97;;
69185;SDS011;56298;49.246;9.410;2022-10-30T00:03:45;19.53;;;9.97;;
69185;SDS011;56298;49.246;9.410;2022-10-30T00:06:11;16.67;;;9.97;;
69185;SDS011;56298;49.246;9.410;2022-10-30T00:08:36;18.30;;;9.90;;
69185;SDS011;56298;49.246;9.410;2022-10-30T00:11:05;21.10;;;9.87;;
69185;SDS011;56298;49.246;9.410;2022-10-30T00:13:35;18.17;;;9.93;;
69185;SDS011;56298;49.246;9.410;2022-10-30T00:16:02;17.73;;;9.70;;
69185;SDS011;56298;49.246;9.410;2022-10-30T00:18:31;16.45;;;8.80;;
69185;SDS011;56298;49.246;9.410;2022-10-30T00:20:56;16.87;;;8.90;;
69185;SDS011;56298;49.246;9.410;2022-10-30T00:23:22;16.97;;;8.73;;
69185;SDS011;56298;49.246;9.410;2022-10-30T00:25:47;17.37;;;7.80;;
69185;SDS011;56298;49.246;9.410;2022-10-30T00:28:12;13.83;;;7.80;;
69185;SDS011;56298;49.246;9.410;2022-10-30T00:30:38;15.87;;;8.47;;
69185;SDS011;56298;49.246;9.410;2022-10-30T00:33:03;18.97;;;8.63;;
69185;SDS011;56298;49.246;9.410;2022-10-30T00:35:29;15.70;;;8.10;;
69185;SDS011;56298;49.246;9.410;2022-10-30T00:37:55;15.23;;;7.97;;
69185;SDS011;56298;49.246;9.410;2022-10-30T00:40:20;17.37;;;8.87;;
69185;SDS011;56298;49.246;9.410;2022-10-30T00:42:46;17.10;;;8.67;;
69185;SDS011;56298;49.246;9.410;2022-10-30T00:45:12;17.47;;;8.63;;
69185;SDS011;56298;49.246;9.410;2022-10-30T00:47:40;18.33;;;8.63;;
69185;SDS011;56298;49.246;9.410;2022-10-30T00:50:10;16.45;;;8.20;;
69185;SDS011;56298;49.246;9.410;2022-10-30T00:52:40;16.13;;;8.13;;
69185;SDS011;56298;49.246;9.410;2022-10-30T00:55:16;17.30;;;8.55;;
69185;SDS011;56298;49.246;9.410;2022-10-30T00:57:44;16.75;;;8.80;;
69185;SDS011;56298;49.246;9.410;2022-10-30T01:00:11;18.52;;;9.68;;
69185;SDS011;56298;49.246;9.410;2022-10-30T01:02:37;19.83;;;8.80;;
69185;SDS011;56298;49.246;9.410;2022-10-30T01:05:04;17.40;;;9.18;;
69185;SDS011;56298;49.246;9.410;2022-10-30T01:07:30;17.93;;;9.10;;
69185;SDS011;56298;49.246;9.410;2022-10-30T01:09:55;17.38;;;9.18;;
69185;SDS011;56298;49.246;9.410;2022-10-30T01:12:20;18.10;;;8.97;;
69185;SDS011;56298;49.246;9.410;2022-10-30T01:14:48;18.87;;;8.77;;
69185;SDS011;56298;49.246;9.410;2022-10-30T01:17:29;17.35;;;8.93;;
69185;SDS011;56298;49.246;9.410;2022-10-30T01:23:06;17.58;;;8.80;;
69185;SDS011;56298;49.246;9.410;2022-10-30T01:28:49;19.03;;;8.63;;
69185;SDS011;56298;49.246;9.410;2022-10-30T01:34:17;20.42;;;9.43;;
69185;SDS011;56298;49.246;9.410;2022-10-30T01:39:22;16.42;;;9.00;;
69185;SDS011;56298;49.246;9.410;2022-10-30T01:41:50;17.70;;;9.25;;
69185;SDS011;56298;49.246;9.410;2022-10-30T01:44:23;19.30;;;8.50;;
69185;SDS011;56298;49.246;9.410;2022-10-30T01:59:55;16.75;;;8.68;;
69185;SDS011;56298;49.246;9.410;2022-10-30T02:02:24;17.70;;;8.57;;
69185;SDS011;56298;49.246;9.410;2022-10-30T02:04:50;18.58;;;8.80;;
69185;SDS011;56298;49.246;9.410;2022-10-30T02:07:15;17.07;;;8.50;;
69185;SDS011;56298;49.246;9.410;2022-10-30T02:09:41;20.03;;;8.40;;
69185;SDS011;56298;49.246;9.410;2022-10-30T02:12:06;19.33;;;8.68;;
69185;SDS011;56298;49.246;9.410;2022-10-30T02:14:34;15.70;;;8.48;;
69185;SDS011;56298;49.246;9.410;2022-10-30T02:17:03;15.30;;;8.65;;
69185;SDS011;56298;49.246;9.410;2022-10-30T02:19:30;16.95;;;8.98;;
69185;SDS011;56298;49.246;9.410;2022-10-30T02:21:55;18.60;;;8.90;;
69185;SDS011;56298;49.246;9.410;2022-10-30T02:24:21;18.93;;;9.07;;
69185;SDS011;56298;49.246;9.410;2022-10-30T02:26:46;14.93;;;8.50;;
69185;SDS011;56298;49.246;9.410;2022-10-30T02:29:11;19.07;;;9.00;;
69185;SDS011;56298;49.246;9.410;2022-10-30T02:31:37;17.37;;;8.60;;
69185;SDS011;56298;49.246;9.410;2022-10-30T02:34:02;18.37;;;8.93;;
69185;SDS011;56298;49.246;9.410;2022-10-30T02:36:28;15.60;;;8.73;;
69185;SDS011;56298;49.246;9.410;2022-10-30T02:38:53;17.67;;;9.23;;
69185;SDS011;56298;49.246;9.410;2022-10-30T02:41:19;16.33;;;9.05;;
69185;SDS011;56298;49.246;9.410;2022-10-30T02:43:45;19.38;;;9.02;;
69185;SDS011;56298;49.246;9.410;2022-10-30T02:46:10;20.38;;;8.93;;
69185;SDS011;56298;49.246;9.410;2022-10-30T02:48:36;19.10;;;9.17;;
69185;SDS011;56298;49.246;9.410;2022-10-30T02:51:01;17.30;;;9.27;;
69185;SDS011;56298;49.246;9.410;2022-10-30T02:53:28;14.73;;;9.25;;
69185;SDS011;56298;49.246;9.410;2022-10-30T02:55:53;17.20;;;8.73;;
69185;SDS011;56298;49.246;9.410;2022-10-30T02:58:19;15.50;;;8.77;;
69185;SDS011;56298;49.246;9.410;2022-10-30T03:00:44;16.20;;;9.17;;
69185;SDS011;56298;49.246;9.410;2022-10-30T03:03:09;15.43;;;8.90;;
69185;SDS011;56298;49.246;9.410;2022-10-30T03:05:35;18.40;;;8.70;;
69185;SDS011;56298;49.246;9.410;2022-10-30T03:08:00;17.07;;;8.73;;
69185;SDS011;56298;49.246;9.410;2022-10-30T03:10:25;16.63;;;8.53;;
69185;SDS011;56298;49.246;9.410;2022-10-30T03:12:51;16.80;;;8.80;;
69185;SDS011;56298;49.246;9.410;2022-10-30T03:15:16;19.17;;;9.10;;
69185;SDS011;56298;49.246;9.410;2022-10-30T03:17:42;16.30;;;9.02;;
69185;SDS011;56298;49.246;9.410;2022-10-30T03:20:07;18.73;;;8.60;;
69185;SDS011;56298;49.246;9.410;2022-10-30T03:22:33;17.07;;;8.80;;
69185;SDS011;56298;49.246;9.410;2022-10-30T03:24:58;16.50;;;8.70;;
69185;SDS011;56298;49.246;9.410;2022-10-30T03:27:23;16.90;;;9.37;;
69185;SDS011;56298;49.246;9.410;2022-10-30T03:29:48;15.67;;;9.67;;
69185;SDS011;56298;49.246;9.410;2022-10-30T03:32:15;18.97;;;9.63;;
69185;SDS011;56298;49.246;9.410;2022-10-30T03:34:40;16.75;;;9.05;;
69185;SDS011;56298;49.246;9.410;2022-10-30T03:37:05;15.13;;;9.07;;
69185;SDS011;56298;49.246;9.410;2022-10-30T03:39:31;15.53;;;8.00;;
69185;SDS011;56298;49.246;9.410;2022-10-30T03:41:56;37.73;;;8.93;;
69185;SDS011;56298;49.246;9.410;2022-10-30T03:44:21;20.00;;;8.90;;
69185;SDS011;56298;49.246;9.410;2022-10-30T03:46:46;18.17;;;9.20;;
69185;SDS011;56298;49.246;9.410;2022-10-30T03:49:12;15.93;;;8.73;;
69185;SDS011;56298;49.246;9.410;2022-10-30T03:51:37;16.77;;;9.30;;
69185;SDS011;56298;49.246;9.410;2022-10-30T03:54:02;17.00;;;9.20;;
69185;SDS011;56298;49.246;9.410;2022-10-30T03:56:28;17.27;;;9.57;;
69185;SDS011;56298;49.246;9.410;2022-10-30T03:58:53;14.98;;;9.15;;
69185;SDS011;56298;49.246;9.410;2022-10-30T04:01:18;16.40;;;8.50;;
69185;SDS011;56298;49.246;9.410;2022-10-30T04:03:44;15.45;;;8.25;;
69185;SDS011;56298;49.246;9.410;2022-10-30T04:06:09;16.13;;;8.18;;
69185;SDS011;56298;49.246;9.410;2022-10-30T04:08:34;15.40;;;8.60;;
69185;SDS011;56298;49.246;9.410;2022-10-30T04:11:00;13.30;;;9.03;;
69185;SDS011;56298;49.246;9.410;2022-10-30T04:13:25;17.40;;;9.23;;
69185;SDS011;56298;49.246;9.410;2022-10-30T04:15:51;14.97;;;9.00;;
69185;SDS011;56298;49.246;9.410;2022-10-30T04:18:16;15.55;;;8.77;;
69185;SDS011;56298;49.246;9.410;2022-10-30T04:20:42;16.60;;;9.70;;
69185;SDS011;56298;49.246;9.410;2022-10-30T04:23:09;16.38;;;9.00;;
69185;SDS011;56298;49.246;9.410;2022-10-30T04:25:37;17.05;;;9.30;;
69185;SDS011;56298;49.246;9.410;2022-10-30T04:28:03;16.27;;;8.40;;
69185;SDS011;56298;49.246;9.410;2022-10-30T04:30:28;16.00;;;9.07;;
69185;SDS011;56298;49.246;9.410;2022-10-30T04:32:59;20.80;;;10.07;;
69185;SDS011;56298;49.246;9.410;2022-10-30T04:35:25;16.33;;;9.23;;
69185;SDS011;56298;49.246;9.410;2022-10-30T04:40:19;15.90;;;9.40;;
69185;SDS011;56298;49.246;9.410;2022-10-30T04:42:48;16.60;;;9.33;;
69185;SDS011;56298;49.246;9.410;2022-10-30T04:45:13;16.70;;;8.87;;
69185;SDS011;56298;49.246;9.410;2022-10-30T04:47:39;18.02;;;9.63;;
69185;SDS011;56298;49.246;9.410;2022-10-30T04:50:04;13.85;;;9.02;;
69185;SDS011;56298;49.246;9.410;2022-10-30T04:52:30;18.80;;;9.15;;
69185;SDS011;56298;49.246;9.410;2022-10-30T04:54:55;19.07;;;9.10;;
69185;SDS011;56298;49.246;9.410;2022-10-30T04:57:21;15.17;;;8.60;;
69185;SDS011;56298;49.246;9.410;2022-10-30T04:59:46;21.30;;;8.80;;
69185;SDS011;56298;49.246;9.410;2022-10-30T05:02:11;18.77;;;8.83;;
69185;SDS011;56298;49.246;9.410;2022-10-30T05:04:36;17.40;;;8.87;;
69185;SDS011;56298;49.246;9.410;2022-10-30T05:07:02;17.27;;;9.43;;
69185;SDS011;56298;49.246;9.410;2022-10-30T05:09:27;13.87;;;8.80;;
69185;SDS011;56298;49.246;9.410;2022-10-30T05:11:53;15.90;;;8.95;;
69185;SDS011;56298;49.246;9.410;2022-10-30T05:14:18;17.70;;;8.87;;
69185;SDS011;56298;49.246;9.410;2022-10-30T05:16:43;17.87;;;7.93;;
69185;SDS011;56298;49.246;9.410;2022-10-30T05:19:09;16.43;;;8.40;;
69185;SDS011;56298;49.246;9.410;2022-10-30T05:21:34;20.03;;;8.70;;
69185;SDS011;56298;49.246;9.410;2022-10-30T05:23:59;12.53;;;7.93;;
69185;SDS011;56298;49.246;9.410;2022-10-30T05:26:25;19.50;;;8.13;;
69185;SDS011;56298;49.246;9.410;2022-10-30T05:28:51;19.23;;;8.25;;
69185;SDS011;56298;49.246;9.410;2022-10-30T05:31:16;12.40;;;7.70;;
69185;SDS011;56298;49.246;9.410;2022-10-30T05:33:41;14.50;;;7.77;;
69185;SDS011;56298;49.246;9.410;2022-10-30T05:36:06;13.43;;;7.63;;
69185;SDS011;56298;49.246;9.410;2022-10-30T05:38:32;13.07;;;7.50;;
69185;SDS011;56298;49.246;9.410;2022-10-30T05:40:57;12.23;;;7.23;;
69185;SDS011;56298;49.246;9.410;2022-10-30T05:43:24;15.60;;;7.70;;
69185;SDS011;56298;49.246;9.410;2022-10-30T05:45:49;13.40;;;7.60;;
69185;SDS011;56298;49.246;9.410;2022-10-30T05:48:15;13.03;;;7.93;;
69185;SDS011;56298;49.246;9.410;2022-10-30T05:50:40;20.20;;;7.60;;
69185;SDS011;56298;49.246;9.410;2022-10-30T05:53:05;14.33;;;7.27;;
69185;SDS011;56298;49.246;9.410;2022-10-30T05:55:31;13.43;;;7.70;;
69185;SDS011;56298;49.246;9.410;2022-10-30T05:58:01;14.07;;;7.70;;
69185;SDS011;56298;49.246;9.410;2022-10-30T06:00:31;17.63;;;8.13;;
69185;SDS011;56298;49.246;9.410;2022-10-30T06:03:04;13.20;;;8.23;;
69185;SDS011;56298;49.246;9.410;2022-10-30T06:05:32;12.93;;;8.05;;
69185;SDS011;56298;49.246;9.410;2022-10-30T06:07:59;14.68;;;7.80;;
69185;SDS011;56298;49.246;9.410;2022-10-30T06:10:25;16.38;;;7.55;;
69185;SDS011;56298;49.246;9.410;2022-10-30T06:12:51;23.08;;;8.15;;
69185;SDS011;56298;49.246;9.410;2022-10-30T06:15:27;19.40;;;7.78;;
69185;SDS011;56298;49.246;9.410;2022-10-30T06:17:53;14.05;;;7.35;;
69185;SDS011;56298;49.246;9.410;2022-10-30T06:20:19;12.10;;;7.43;;
69185;SDS011;56298;49.246;9.410;2022-10-30T06:23:01;14.77;;;7.95;;
69185;SDS011;56298;49.246;9.410;2022-10-30T06:25:29;14.70;;;7.88;;
69185;SDS011;56298;49.246;9.410;2022-10-30T06:27:55;15.50;;;7.35;;
69185;SDS011;56298;49.246;9.410;2022-10-30T06:30:21;13.93;;;8.00;;
69185;SDS011;56298;49.246;9.410;2022-10-30T06:32:47;15.80;;;7.63;;
69185;SDS011;56298;49.246;9.410;2022-10-30T06:35:12;17.23;;;7.70;;
69185;SDS011;56298;49.246;9.410;2022-10-30T06:37:43;12.73;;;7.40;;
69185;SDS011;56298;49.246;9.410;2022-10-30T06:40:10;22.23;;;7.55;;
69185;SDS011;56298;49.246;9.410;2022-10-30T06:42:45;11.43;;;7.70;;
69185;SDS011;56298;49.246;9.410;2022-10-30T06:45:11;13.63;;;7.72;;
69185;SDS011;56298;49.246;9.410;2022-10-30T06:47:38;11.43;;;7.72;;
69185;SDS011;56298;49.246;9.410;2022-10-30T06:50:04;10.70;;;7.38;;
69185;SDS011;56298;49.246;9.410;2022-10-30T06:52:31;11.17;;;7.37;;
69185;SDS011;56298;49.246;9.410;2022-10-30T06:54:56;13.80;;;7.32;;
69185;SDS011;56298;49.246;9.410;2022-10-30T06:57:21;12.57;;;7.63;;
69185;SDS011;56298;49.246;9.410;2022-10-30T06:59:47;11.23;;;7.27;;
69185;SDS011;56298;49.246;9.410;2022-10-30T07:02:12;11.97;;;7.57;;
69185;SDS011;56298;49.246;9.410;2022-10-30T07:04:37;10.80;;;7.33;;
69185;SDS011;56298;49.246;9.410;2022-10-30T07:07:03;11.37;;;7.20;;
69185;SDS011;56298;49.246;9.410;2022-10-30T07:09:28;12.70;;;7.40;;
69185;SDS011;56298;49.246;9.410;2022-10-30T07:11:54;14.60;;;7.10;;
69185;SDS011;56298;49.246;9.410;2022-10-30T07:14:19;15.00;;;7.00;;
69185;SDS011;56298;49.246;9.410;2022-10-30T07:16:44;10.33;;;6.70;;
69185;SDS011;56298;49.246;9.410;2022-10-30T07:19:10;9.80;;;6.50;;
69185;SDS011;56298;49.246;9.410;2022-10-30T07:21:35;13.37;;;7.20;;
69185;SDS011;56298;49.246;9.410;2022-10-30T07:24:00;13.17;;;6.80;;
69185;SDS011;56298;49.246;9.410;2022-10-30T07:26:26;14.33;;;6.60;;
69185;SDS011;56298;49.246;9.410;2022-10-30T07:28:51;8.70;;;5.97;;
69185;SDS011;56298;49.246;9.410;2022-10-30T07:31:16;7.67;;;5.53;;
69185;SDS011;56298;49.246;9.410;2022-10-30T07:33:42;8.97;;;6.20;;
69185;SDS011;56298;49.246;9.410;2022-10-30T07:36:07;10.83;;;6.10;;
69185;SDS011;56298;49.246;9.410;2022-10-30T07:38:32;8.90;;;6.20;;
69185;SDS011;56298;49.246;9.410;2022-10-30T07:40:58;11.37;;;6.53;;
69185;SDS011;56298;49.246;9.410;2022-10-30T07:43:23;8.37;;;5.97;;
69185;SDS011;56298;49.246;9.410;2022-10-30T07:45:48;8.97;;;5.83;;
69185;SDS011;56298;49.246;9.410;2022-10-30T07:48:14;11.23;;;6.50;;
69185;SDS011;56298;49.246;9.410;2022-10-30T07:50:39;10.93;;;6.40;;
69185;SDS011;56298;49.246;9.410;2022-10-30T07:53:04;12.10;;;7.10;;
69185;SDS011;56298;49.246;9.410;2022-10-30T07:55:29;10.80;;;6.70;;
69185;SDS011;56298;49.246;9.410;2022-10-30T07:57:55;11.63;;;6.70;;
69185;SDS011;56298;49.246;9.410;2022-10-30T08:00:20;12.63;;;6.83;;
69185;SDS011;56298;49.246;9.410;2022-10-30T08:02:49;11.90;;;6.67;;
69185;SDS011;56298;49.246;9.410;2022-10-30T08:05:15;13.52;;;6.60;;
69185;SDS011;56298;49.246;9.410;2022-10-30T08:07:40;11.27;;;6.90;;
69185;SDS011;56298;49.246;9.410;2022-10-30T08:10:06;11.93;;;6.37;;
69185;SDS011;56298;49.246;9.410;2022-10-30T08:12:32;10.25;;;6.60;;
69185;SDS011;56298;49.246;9.410;2022-10-30T08:14:58;13.50;;;6.35;;
69185;SDS011;56298;49.246;9.410;2022-10-30T08:17:24;13.73;;;6.60;;
69185;SDS011;56298;49.246;9.410;2022-10-30T08:19:49;12.77;;;6.53;;
69185;SDS011;56298;49.246;9.410;2022-10-30T08:22:14;12.33;;;6.07;;
69185;SDS011;56298;49.246;9.410;2022-10-30T08:24:40;10.30;;;6.20;;
69185;SDS011;56298;49.246;9.410;2022-10-30T08:27:05;12.70;;;6.03;;
69185;SDS011;56298;49.246;9.410;2022-10-30T08:29:31;11.20;;;6.47;;
69185;SDS011;56298;49.246;9.410;2022-10-30T08:31:56;12.27;;;6.33;;
69185;SDS011;56298;49.246;9.410;2022-10-30T08:34:21;13.20;;;5.90;;
69185;SDS011;56298;49.246;9.410;2022-10-30T08:36:48;12.18;;;6.30;;
69185;SDS011;56298;49.246;9.410;2022-10-30T08:39:14;12.32;;;5.80;;
69185;SDS011;56298;49.246;9.410;2022-10-30T08:41:40;13.38;;;5.95;;
69185;SDS011;56298;49.246;9.410;2022-10-30T08:44:05;10.70;;;5.97;;
69185;SDS011;56298;49.246;9.410;2022-10-30T08:46:30;12.83;;;5.93;;
69185;SDS011;56298;49.246;9.410;2022-10-30T08:48:56;12.53;;;5.83;;
69185;SDS011;56298;49.246;9.410;2022-10-30T08:51:21;12.43;;;5.70;;
69185;SDS011;56298;49.246;9.410;2022-10-30T08:53:47;11.23;;;5.70;;
69185;SDS011;56298;49.246;9.410;2022-10-30T08:56:13;10.97;;;5.43;;
69185;SDS011;56298;49.246;9.410;2022-10-30T08:58:39;12.43;;;5.97;;
69185;SDS011;56298;49.246;9.410;2022-10-30T09:01:04;11.33;;;5.50;;
69185;SDS011;56298;49.246;9.410;2022-10-30T09:03:30;10.77;;;5.10;;
69185;SDS011;56298;49.246;9.410;2022-10-30T09:05:56;10.13;;;4.80;;
69185;SDS011;56298;49.246;9.410;2022-10-30T09:08:22;10.77;;;5.30;;
69185;SDS011;56298;49.246;9.410;2022-10-30T09:10:52;11.98;;;4.90;;
69185;SDS011;56298;49.246;9.410;2022-10-30T09:13:21;11.00;;;4.90;;
69185;SDS011;56298;49.246;9.410;2022-10-30T09:15:46;10.53;;;5.10;;
69185;SDS011;56298;49.246;9.410;2022-10-30T09:18:11;11.43;;;5.30;;
69185;SDS011;56298;49.246;9.410;2022-10-30T09:20:37;11.27;;;4.93;;
69185;SDS011;56298;49.246;9.410;2022-10-30T09:23:02;11.93;;;5.17;;
69185;SDS011;56298;49.246;9.410;2022-10-30T09:25:27;11.40;;;4.90;;
69185;SDS011;56298;49.246;9.410;2022-10-30T09:27:53;11.73;;;5.30;;
69185;SDS011;56298;49.246;9.410;2022-10-30T09:30:18;12.60;;;4.67;;
69185;SDS011;56298;49.246;9.410;2022-10-30T09:32:44;10.43;;;4.65;;
69185;SDS011;56298;49.246;9.410;2022-10-30T09:35:09;9.07;;;4.40;;
69185;SDS011;56298;49.246;9.410;2022-10-30T09:37:35;12.27;;;4.60;;
69185;SDS011;56298;49.246;9.410;2022-10-30T09:40:01;12.10;;;4.50;;
69185;SDS011;56298;49.246;9.410;2022-10-30T09:42:41;11.07;;;4.75;;
69185;SDS011;56298;49.246;9.410;2022-10-30T09:50:37;12.60;;;4.45;;
69185;SDS011;56298;49.246;9.410;2022-10-30T09:53:31;12.80;;;4.57;;
69185;SDS011;56298;49.246;9.410;2022-10-30T09:56:17;10.00;;;4.68;;
69185;SDS011;56298;49.246;9.410;2022-10-30T09:58:56;13.68;;;4.70;;
69185;SDS011;56298;49.246;9.410;2022-10-30T10:01:46;11.93;;;4.18;;
69185;SDS011;56298;49.246;9.410;2022-10-30T10:04:34;12.73;;;4.50;;
69185;SDS011;56298;49.246;9.410;2022-10-30T10:07:24;11.13;;;4.53;;
69185;SDS011;56298;49.246;9.410;2022-10-30T10:09:55;11.60;;;4.40;;
69185;SDS011;56298;49.246;9.410;2022-10-30T10:12:28;11.70;;;4.30;;
69185;SDS011;56298;49.246;9.410;2022-10-30T10:14:59;13.80;;;4.68;;
69185;SDS011;56298;49.246;9.410;2022-10-30T10:17:38;11.73;;;4.30;;
69185;SDS011;56298;49.246;9.410;2022-10-30T10:20:14;10.55;;;4.13;;
69185;SDS011;56298;49.246;9.410;2022-10-30T10:22:48;12.05;;;4.22;;
69185;SDS011;56298;49.246;9.410;2022-10-30T10:25:15;10.93;;;4.35;;
69185;SDS011;56298;49.246;9.410;2022-10-30T10:27:48;14.40;;;4.60;;
69185;SDS011;56298;49.246;9.410;2022-10-30T10:30:21;11.93;;;4.35;;
69185;SDS011;56298;49.246;9.410;2022-10-30T10:49:41;12.33;;;4.00;;
69185;SDS011;56298;49.246;9.410;2022-10-30T10:52:14;13.75;;;4.55;;
69185;SDS011;56298;49.246;9.410;2022-10-30T10:54:45;12.13;;;4.13;;
69185;SDS011;56298;49.246;9.410;2022-10-30T11:00:01;11.35;;;4.20;;
69185;SDS011;56298;49.246;9.410;2022-10-30T11:02:55;11.82;;;3.97;;
69185;SDS011;56298;49.246;9.410;2022-10-30T11:06:14;13.10;;;4.30;;
69185;SDS011;56298;49.246;9.410;2022-10-30T11:08:24;10.82;;;4.22;;
69185;SDS011;56298;49.246;9.410;2022-10-30T11:11:03;10.88;;;4.30;;
69185;SDS011;56298;49.246;9.410;2022-10-30T11:13:30;11.07;;;4.07;;
69185;SDS011;56298;49.246;9.410;2022-10-30T11:16:02;11.93;;;3.72;;
69185;SDS011;56298;49.246;9.410;2022-10-30T11:18:33;10.55;;;3.63;;
69185;SDS011;56298;49.246;9.410;2022-10-30T11:21:03;11.20;;;3.80;;
69185;SDS011;56298;49.246;9.410;2022-10-30T11:25:58;10.37;;;3.97;;
69185;SDS011;56298;49.246;9.410;2022-10-30T11:28:32;10.77;;;3.53;;
69185;SDS011;56298;49.246;9.410;2022-10-30T11:31:46;12.87;;;3.27;;
69185;SDS011;56298;49.246;9.410;2022-10-30T11:37:03;11.43;;;3.15;;
69185;SDS011;56298;49.246;9.410;2022-10-30T11:39:30;11.55;;;3.47;;
69185;SDS011;56298;49.246;9.410;2022-10-30T11:44:26;10.73;;;3.40;;
69185;SDS011;56298;49.246;9.410;2022-10-30T11:46:55;11.82;;;3.03;;
69185;SDS011;56298;49.246;9.410;2022-10-30T11:49:30;10.27;;;3.00;;
69185;SDS011;56298;49.246;9.410;2022-10-30T11:52:00;11.23;;;3.13;;
69185;SDS011;56298;49.246;9.410;2022-10-30T11:54:25;12.45;;;3.05;;
69185;SDS011;56298;49.246;9.410;2022-10-30T11:56:51;11.50;;;3.20;;
69185;SDS011;56298;49.246;9.410;2022-10-30T11:59:18;10.53;;;3.30;;
69185;SDS011;56298;49.246;9.410;2022-10-30T12:01:56;11.20;;;3.05;;
69185;SDS011;56298;49.246;9.410;2022-10-30T12:04:24;12.02;;;3.55;;
69185;SDS011;56298;49.246;9.410;2022-10-30T12:09:41;12.07;;;3.57;;
69185;SDS011;56298;49.246;9.410;2022-10-30T12:12:11;12.05;;;3.70;;
69185;SDS011;56298;49.246;9.410;2022-10-30T12:14:45;13.77;;;3.67;;
69185;SDS011;56298;49.246;9.410;2022-10-30T12:17:12;14.60;;;3.87;;
69185;SDS011;56298;49.246;9.410;2022-10-30T12:19:42;11.20;;;3.10;;
69185;SDS011;56298;49.246;9.410;2022-10-30T12:22:22;13.68;;;3.78;;
69185;SDS011;56298;49.246;9.410;2022-10-30T12:24:49;13.82;;;3.65;;
69185;SDS011;56298;49.246;9.410;2022-10-30T12:27:15;12.55;;;3.30;;
69185;SDS011;56298;49.246;9.410;2022-10-30T12:32:46;9.05;;;3.28;;
69185;SDS011;56298;49.246;9.410;2022-10-30T12:35:33;12.38;;;3.53;;
69185;SDS011;56298;49.246;9.410;2022-10-30T12:43:51;8.95;;;3.05;;
69185;SDS011;56298;49.246;9.410;2022-10-30T12:49:57;7.72;;;3.38;;
69185;SDS011;56298;49.246;9.410;2022-10-30T12:52:35;11.30;;;3.17;;
69185;SDS011;56298;49.246;9.410;2022-10-30T12:55:13;10.07;;;3.30;;
69185;SDS011;56298;49.246;9.410;2022-10-30T12:57:45;10.30;;;3.40;;
69185;SDS011;56298;49.246;9.410;2022-10-30T13:00:15;8.70;;;3.28;;
69185;SDS011;56298;49.246;9.410;2022-10-30T13:02:52;9.60;;;3.47;;
69185;SDS011;56298;49.246;9.410;2022-10-30T13:10:41;11.73;;;3.33;;
69185;SDS011;56298;49.246;9.410;2022-10-30T13:13:13;11.77;;;3.45;;
69185;SDS011;56298;49.246;9.410;2022-10-30T13:15:46;9.50;;;3.00;;
69185;SDS011;56298;49.246;9.410;2022-10-30T13:18:21;10.40;;;3.43;;
69185;SDS011;56298;49.246;9.410;2022-10-30T13:23:38;11.80;;;3.72;;
69185;SDS011;56298;49.246;9.410;2022-10-30T13:28:51;11.93;;;3.70;;
69185;SDS011;56298;49.246;9.410;2022-10-30T13:42:56;13.65;;;3.65;;
69185;SDS011;56298;49.246;9.410;2022-10-30T13:53:00;9.47;;;3.30;;
69185;SDS011;56298;49.246;9.410;2022-10-30T13:55:33;9.93;;;3.40;;
69185;SDS011;56298;49.246;9.410;2022-10-30T13:58:01;10.90;;;3.30;;
69185;SDS011;56298;49.246;9.410;2022-10-30T14:00:31;11.77;;;3.40;;
69185;SDS011;56298;49.246;9.410;2022-10-30T14:08:47;14.00;;;3.90;;
69185;SDS011;56298;49.246;9.410;2022-10-30T14:11:21;9.13;;;3.38;;
69185;SDS011;56298;49.246;9.410;2022-10-30T14:13:50;10.23;;;3.60;;
69185;SDS011;56298;49.246;9.410;2022-10-30T14:19:09;10.85;;;3.40;;
69185;SDS011;56298;49.246;9.410;2022-10-30T14:21:42;10.98;;;3.90;;
69185;SDS011;56298;49.246;9.410;2022-10-30T14:24:27;11.55;;;3.85;;
69185;SDS011;56298;49.246;9.410;2022-10-30T14:27:05;10.20;;;3.42;;
69185;SDS011;56298;49.246;9.410;2022-10-30T14:37:09;9.43;;;3.70;;
69185;SDS011;56298;49.246;9.410;2022-10-30T14:39:39;12.98;;;4.10;;
69185;SDS011;56298;49.246;9.410;2022-10-30T14:42:27;12.40;;;4.20;;
69185;SDS011;56298;49.246;9.410;2022-10-30T14:45:12;11.57;;;4.22;;
69185;SDS011;56298;49.246;9.410;2022-10-30T14:56:30;12.20;;;4.00;;
69185;SDS011;56298;49.246;9.410;2022-10-30T14:59:08;13.67;;;4.00;;
69185;SDS011;56298;49.246;9.410;2022-10-30T15:09:36;13.07;;;4.68;;
69185;SDS011;56298;49.246;9.410;2022-10-30T15:14:58;10.68;;;4.45;;
69185;SDS011;56298;49.246;9.410;2022-10-30T15:19:54;10.15;;;4.40;;
69185;SDS011;56298;49.246;9.410;2022-10-30T15:22:20;14.68;;;4.90;;
69185;SDS011;56298;49.246;9.410;2022-10-30T15:24:48;12.40;;;4.40;;
69185;SDS011;56298;49.246;9.410;2022-10-30T15:27:16;10.73;;;4.37;;
69185;SDS011;56298;49.246;9.410;2022-10-30T15:29:45;11.55;;;3.92;;
69185;SDS011;56298;49.246;9.410;2022-10-30T15:32:21;11.57;;;4.57;;
69185;SDS011;56298;49.246;9.410;2022-10-30T15:35:01;11.23;;;5.03;;
69185;SDS011;56298;49.246;9.410;2022-10-30T15:37:28;12.60;;;4.93;;
69185;SDS011;56298;49.246;9.410;2022-10-30T15:40:11;12.80;;;5.13;;
69185;SDS011;56298;49.246;9.410;2022-10-30T15:42:40;13.32;;;5.20;;
69185;SDS011;56298;49.246;9.410;2022-10-30T15:45:10;12.77;;;5.60;;
69185;SDS011;56298;49.246;9.410;2022-10-30T15:48:03;14.30;;;6.10;;
69185;SDS011;56298;49.246;9.410;2022-10-30T15:50:36;13.52;;;5.32;;
69185;SDS011;56298;49.246;9.410;2022-10-30T15:53:13;13.27;;;5.40;;
69185;SDS011;56298;49.246;9.410;2022-10-30T15:55:41;11.88;;;5.05;;
69185;SDS011;56298;49.246;9.410;2022-10-30T15:58:06;14.23;;;5.30;;
69185;SDS011;56298;49.246;9.410;2022-10-30T16:00:40;13.65;;;5.65;;
69185;SDS011;56298;49.246;9.410;2022-10-30T16:03:13;13.27;;;5.23;;
69185;SDS011;56298;49.246;9.410;2022-10-30T16:05:40;12.27;;;4.80;;
69185;SDS011;56298;49.246;9.410;2022-10-30T16:08:24;11.27;;;5.00;;
69185;SDS011;56298;49.246;9.410;2022-10-30T16:10:52;13.20;;;5.33;;
69185;SDS011;56298;49.246;9.410;2022-10-30T16:13:19;12.20;;;5.20;;
69185;SDS011;56298;49.246;9.410;2022-10-30T16:15:47;10.82;;;5.22;;
69185;SDS011;56298;49.246;9.410;2022-10-30T16:18:16;14.13;;;5.53;;
69185;SDS011;56298;49.246;9.410;2022-10-30T16:20:51;12.65;;;5.65;;
69185;SDS011;56298;49.246;9.410;2022-10-30T16:23:21;12.70;;;5.57;;
69185;SDS011;56298;49.246;9.410;2022-10-30T16:25:48;12.60;;;5.53;;
69185;SDS011;56298;49.246;9.410;2022-10-30T16:28:28;13.85;;;5.05;;
69185;SDS011;56298;49.246;9.410;2022-10-30T16:30:56;16.15;;;5.43;;
69185;SDS011;56298;49.246;9.410;2022-10-30T16:33:25;14.02;;;5.07;;
69185;SDS011;56298;49.246;9.410;2022-10-30T16:35:52;13.48;;;5.43;;
69185;SDS011;56298;49.246;9.410;2022-10-30T16:38:18;12.38;;;5.30;;
69185;SDS011;56298;49.246;9.410;2022-10-30T16:40:45;13.80;;;4.70;;
69185;SDS011;56298;49.246;9.410;2022-10-30T16:43:24;13.68;;;5.38;;
69185;SDS011;56298;49.246;9.410;2022-10-30T16:45:49;14.98;;;5.32;;
69185;SDS011;56298;49.246;9.410;2022-10-30T16:48:18;11.23;;;5.27;;
69185;SDS011;56298;49.246;9.410;2022-10-30T16:50:51;12.85;;;5.07;;
69185;SDS011;56298;49.246;9.410;2022-10-30T16:53:22;11.33;;;5.40;;
69185;SDS011;56298;49.246;9.410;2022-10-30T16:55:49;12.02;;;5.03;;
69185;SDS011;56298;49.246;9.410;2022-10-30T16:58:15;13.65;;;5.60;;
69185;SDS011;56298;49.246;9.410;2022-10-30T17:00:49;12.02;;;5.85;;
69185;SDS011;56298;49.246;9.410;2022-10-30T17:03:18;19.95;;;9.73;;
69185;SDS011;56298;49.246;9.410;2022-10-30T17:06:02;15.80;;;6.27;;
69185;SDS011;56298;49.246;9.410;2022-10-30T17:11:01;105.40;;;55.83;;